createdAt,value
2022-10-18T00:00:02.328Z,71.01
2022-10-18T00:03:17.223Z,71.96
2022-10-18T00:06:25.220Z,72.67
2022-10-18T00:09:34.363Z,72.48
2022-10-18T00:12:50.263Z,73.30
2022-10-18T00:16:18.308Z,73.66
2022-10-18T00:19:33.222Z,73.95
2022-10-18T00:22:42.062Z,73.94
2022-10-18T00:25:50.240Z,73.94
2022-10-18T00:29:09.260Z,73.07
2022-10-18T00:32:17.796Z,72.81
2022-10-18T00:35:32.208Z,73.03
2022-10-18T00:38:40.344Z,73.34
2022-10-18T00:41:56.274Z,73.38
2022-10-18T00:45:23.256Z,73.37
2022-10-18T00:48:38.358Z,73.49
2022-10-18T00:51:58.290Z,73.56
2022-10-18T00:55:07.276Z,75.28
2022-10-18T00:58:18.189Z,75.69
2022-10-18T01:01:33.352Z,76.16
2022-10-18T01:04:42.086Z,76.38
2022-10-18T01:08:14.273Z,76.76
2022-10-18T01:11:42.853Z,76.81
2022-10-18T01:15:16.252Z,76.95
2022-10-18T01:19:02.296Z,76.72
2022-10-18T01:22:12.029Z,77.15
2022-10-18T01:25:42.241Z,77.02
2022-10-18T01:29:18.270Z,77.44
2022-10-18T01:32:40.250Z,77.44
2022-10-18T01:36:04.286Z,77.36
2022-10-18T01:39:16.980Z,77.48
2022-10-18T01:42:27.292Z,77.79
2022-10-18T01:45:42.254Z,77.80
2022-10-18T01:49:00.280Z,77.81
2022-10-18T01:55:36.342Z,77.25
2022-10-18T01:58:54.020Z,77.00
2022-10-18T02:02:27.309Z,76.75
2022-10-18T02:05:45.263Z,76.87
2022-10-18T02:09:04.187Z,76.90
2022-10-18T02:12:17.316Z,76.45
2022-10-18T02:15:33.939Z,76.48
2022-10-18T02:18:55.261Z,76.48
2022-10-18T02:22:12.421Z,76.15
2022-10-18T02:25:20.250Z,76.12
2022-10-18T02:28:35.348Z,76.13
2022-10-18T02:31:45.611Z,75.87
2022-10-18T02:35:07.288Z,75.84
2022-10-18T02:38:11.989Z,76.43
2022-10-18T02:41:31.303Z,76.46
2022-10-18T02:44:46.312Z,76.61
2022-10-18T02:47:54.300Z,77.62
2022-10-18T02:51:09.302Z,78.05
2022-10-18T02:54:17.318Z,78.07
2022-10-18T02:57:25.933Z,78.37
2022-10-18T03:00:34.341Z,77.59
2022-10-18T03:03:43.164Z,77.21
2022-10-18T03:06:51.327Z,77.03
2022-10-18T03:10:06.327Z,77.11
2022-10-18T03:13:08.491Z,77.23
2022-10-18T03:16:24.332Z,77.27
2022-10-18T03:19:32.578Z,77.92
2022-10-18T03:22:47.323Z,77.64
2022-10-18T03:25:49.067Z,77.64
2022-10-18T03:29:04.400Z,77.78
2022-10-18T03:32:13.364Z,77.85
2022-10-18T03:35:22.091Z,77.80
2022-10-18T03:38:30.335Z,78.17
2022-10-18T03:41:39.098Z,77.56
2022-10-18T03:44:47.403Z,77.42
2022-10-18T03:47:55.864Z,77.33
2022-10-18T03:51:04.365Z,77.41
2022-10-18T03:54:19.382Z,77.53
2022-10-18T03:57:27.966Z,77.26
2022-10-18T04:00:43.393Z,77.27
2022-10-18T04:03:58.365Z,77.54
2022-10-18T04:07:07.342Z,77.88
2022-10-18T04:10:16.415Z,77.97
2022-10-18T04:13:25.348Z,78.01
2022-10-18T04:16:40.588Z,78.22
2022-10-18T04:19:55.340Z,78.35
2022-10-18T04:23:03.383Z,78.49
2022-10-18T04:26:11.870Z,78.60
2022-10-18T04:29:20.395Z,78.77
2022-10-18T04:32:29.088Z,78.92
2022-10-18T04:35:37.516Z,78.65
2022-10-18T04:38:45.935Z,78.76
2022-10-18T04:41:54.425Z,78.73
2022-10-18T04:45:10.387Z,78.31
2022-10-18T04:48:12.812Z,78.53
2022-10-18T04:51:27.423Z,78.56
2022-10-18T04:54:35.361Z,78.56
2022-10-18T04:57:50.408Z,78.34
2022-10-18T05:00:59.298Z,78.36
2022-10-18T05:04:14.409Z,78.23
2022-10-18T05:07:22.464Z,78.44
2022-10-18T05:10:38.388Z,78.23
2022-10-18T05:13:40.209Z,78.49
2022-10-18T05:16:55.442Z,78.71
2022-10-18T05:20:04.368Z,78.53
2022-10-18T05:23:19.411Z,77.92
2022-10-18T05:26:27.928Z,78.05
2022-10-18T05:29:42.488Z,78.22
2022-10-18T05:32:50.464Z,78.14
2022-10-18T05:36:08.635Z,78.53
2022-10-18T05:39:17.396Z,78.98
2022-10-18T05:42:26.131Z,78.82
2022-10-18T05:45:34.409Z,79.07
2022-10-18T05:48:44.442Z,79.04
2022-10-18T05:51:53.626Z,78.42
2022-10-18T05:55:08.408Z,78.33
2022-10-18T05:58:17.707Z,78.49
2022-10-18T06:01:26.105Z,78.38
2022-10-18T06:04:34.388Z,78.30
2022-10-18T06:07:49.567Z,77.79
2022-10-18T06:10:52.604Z,77.69
2022-10-18T06:14:07.420Z,77.50
2022-10-18T06:17:15.480Z,77.14
2022-10-18T06:20:37.469Z,76.98
2022-10-18T06:23:46.460Z,76.84
2022-10-18T06:26:55.171Z,77.06
2022-10-18T06:30:10.456Z,76.71
2022-10-18T06:33:19.003Z,76.47
2022-10-18T06:36:33.520Z,76.05
2022-10-18T06:39:48.445Z,75.72
2022-10-18T06:43:00.763Z,75.65
2022-10-18T06:46:26.469Z,75.09
2022-10-18T06:49:34.573Z,74.72
2022-10-18T06:52:43.105Z,74.76
2022-10-18T06:55:51.455Z,73.72
2022-10-18T06:59:00.340Z,73.47
2022-10-18T07:02:09.593Z,73.51
2022-10-18T07:05:19.473Z,72.78
2022-10-18T07:08:27.607Z,72.34
2022-10-18T07:11:36.258Z,71.81
2022-10-18T07:14:44.521Z,71.54
2022-10-18T07:17:59.488Z,71.27
2022-10-18T07:21:16.626Z,70.76
2022-10-18T07:24:24.511Z,70.17
2022-10-18T07:27:41.940Z,69.74
2022-10-18T07:31:00.326Z,68.37
2022-10-18T07:34:19.518Z,66.77
2022-10-18T07:37:35.827Z,67.06
2022-10-18T07:40:44.483Z,67.04
2022-10-18T07:44:00.512Z,65.80
2022-10-18T07:47:08.500Z,65.58
2022-10-18T07:50:18.147Z,64.86
2022-10-18T07:53:26.447Z,63.95
2022-10-18T07:56:35.023Z,63.55
2022-10-18T07:59:43.628Z,63.28
2022-10-18T08:03:00.531Z,62.26
2022-10-18T08:06:10.491Z,60.64
2022-10-18T08:09:25.484Z,61.03
2022-10-18T08:12:27.496Z,61.06
2022-10-18T08:15:42.571Z,59.69
2022-10-18T08:18:57.507Z,58.97
2022-10-18T08:22:12.697Z,58.91
2022-10-18T08:25:21.520Z,58.82
2022-10-18T08:28:30.393Z,58.69
2022-10-18T08:31:39.603Z,58.66
2022-10-18T08:34:54.563Z,58.70
2022-10-18T08:37:56.335Z,57.67
2022-10-18T08:41:36.681Z,57.26
2022-10-18T08:44:52.475Z,54.94
2022-10-18T08:48:07.559Z,55.09
2022-10-18T08:51:31.548Z,54.89
2022-10-18T08:55:02.558Z,53.78
2022-10-18T08:58:23.488Z,53.35
2022-10-18T09:02:08.634Z,52.50
2022-10-18T09:05:35.578Z,52.57
2022-10-18T09:09:04.452Z,51.88
2022-10-18T09:12:36.622Z,51.63
2022-10-18T09:15:58.521Z,51.14
2022-10-18T09:19:32.072Z,50.42
2022-10-18T09:22:59.608Z,49.68
2022-10-18T09:26:18.300Z,49.61
2022-10-18T09:29:42.656Z,49.53
2022-10-18T09:33:10.667Z,49.07
2022-10-18T09:36:23.494Z,49.43
2022-10-18T09:39:44.533Z,48.74
2022-10-18T09:42:55.374Z,49.01
2022-10-18T09:46:12.582Z,48.58
2022-10-18T09:49:21.349Z,48.78
2022-10-18T09:52:51.527Z,48.16
2022-10-18T09:56:09.565Z,47.26
2022-10-18T09:59:34.050Z,46.68
2022-10-18T10:02:42.559Z,46.53
2022-10-18T10:06:22.531Z,45.29
2022-10-18T10:09:46.811Z,44.30
2022-10-18T10:13:28.400Z,44.91
2022-10-18T10:16:37.271Z,44.87
2022-10-18T10:20:21.583Z,43.27
2022-10-18T10:23:27.979Z,43.68
2022-10-18T10:26:43.910Z,42.50
2022-10-18T10:29:53.134Z,41.31
2022-10-18T10:33:08.696Z,41.19
2022-10-18T10:36:28.622Z,40.27
2022-10-18T10:39:37.282Z,39.77
2022-10-18T10:43:32.915Z,38.55
2022-10-18T10:46:42.414Z,38.96
2022-10-18T10:50:07.856Z,38.92
2022-10-18T10:53:38.758Z,38.94
2022-10-18T10:57:05.216Z,39.56
2022-10-18T11:00:40.598Z,39.10
2022-10-18T11:03:55.149Z,39.63
2022-10-18T11:07:38.349Z,38.86
2022-10-18T11:10:55.006Z,39.18
2022-10-18T11:14:26.273Z,39.13
2022-10-18T11:17:39.480Z,38.36
2022-10-18T11:21:13.616Z,38.51
2022-10-18T11:24:23.582Z,29.04
2022-10-18T11:27:36.588Z,21.36
2022-10-18T11:31:09.965Z,17.75
2022-10-18T11:34:38.138Z,15.78
2022-10-18T11:38:03.667Z,14.85
2022-10-18T11:41:38.761Z,13.91
2022-10-18T11:45:04.802Z,13.81
2022-10-18T11:48:37.624Z,13.23
2022-10-18T11:52:07.856Z,13.32
2022-10-18T11:55:41.667Z,12.91
2022-10-18T11:59:12.779Z,13.38
2022-10-18T12:02:51.192Z,12.96
2022-10-18T12:06:02.647Z,13.24
2022-10-18T12:09:31.831Z,13.87
2022-10-18T12:12:48.664Z,13.19
2022-10-18T12:16:04.742Z,14.45
2022-10-18T12:19:23.709Z,14.84
2022-10-18T12:22:53.647Z,15.08
2022-10-18T12:26:08.648Z,14.49
2022-10-18T12:29:30.211Z,15.29
2022-10-18T12:33:02.212Z,14.23
2022-10-18T12:36:39.748Z,14.25
2022-10-18T12:40:18.488Z,15.38
2022-10-18T12:43:37.692Z,15.16
2022-10-18T12:47:02.662Z,15.43
2022-10-18T12:50:28.875Z,14.90
2022-10-18T12:53:38.736Z,16.41
2022-10-18T12:56:48.687Z,16.97
2022-10-18T12:59:57.805Z,17.40
2022-10-18T13:03:36.697Z,16.41
2022-10-18T13:07:21.751Z,16.44
2022-10-18T13:10:44.140Z,16.95
2022-10-18T13:14:18.680Z,18.36
2022-10-18T13:17:43.692Z,24.18
2022-10-18T13:21:21.746Z,27.54
2022-10-18T13:24:37.754Z,29.62
2022-10-18T13:28:11.733Z,30.57
2022-10-18T13:31:39.819Z,31.51
2022-10-18T13:34:48.700Z,31.40
2022-10-18T13:38:05.825Z,31.96
2022-10-18T13:41:28.286Z,32.50
2022-10-18T13:44:34.667Z,32.49
2022-10-18T13:47:49.749Z,33.57
2022-10-18T13:51:11.239Z,32.88
2022-10-18T13:54:38.779Z,32.92
2022-10-18T13:58:07.653Z,33.38
2022-10-18T14:01:39.052Z,34.50
2022-10-18T14:05:24.489Z,34.07
2022-10-18T14:08:42.808Z,34.54
2022-10-18T14:12:03.780Z,35.32
2022-10-18T14:15:15.752Z,34.88
2022-10-18T14:18:37.741Z,34.41
2022-10-18T14:21:43.431Z,35.10
2022-10-18T14:25:00.782Z,35.71
2022-10-18T14:28:36.352Z,35.17
2022-10-18T14:32:02.680Z,35.47
2022-10-18T14:35:32.700Z,35.66
2022-10-18T14:38:38.536Z,35.79
2022-10-18T14:41:57.931Z,35.91
2022-10-18T14:48:28.755Z,36.34
2022-10-18T14:51:42.859Z,35.91
2022-10-18T14:54:55.016Z,36.26
2022-10-18T14:58:09.788Z,36.53
2022-10-18T15:01:20.026Z,37.08
2022-10-18T15:04:35.777Z,36.97
2022-10-18T15:07:43.748Z,37.29
2022-10-18T15:10:53.275Z,38.02
2022-10-18T15:14:09.724Z,37.63
2022-10-18T15:17:39.756Z,38.23
2022-10-18T15:21:15.769Z,38.58
2022-10-18T15:24:37.748Z,39.19
2022-10-18T15:27:46.784Z,39.39
2022-10-18T15:30:55.852Z,39.24
2022-10-18T15:34:16.821Z,39.66
2022-10-18T15:37:38.691Z,40.63
2022-10-18T15:40:47.828Z,40.41
2022-10-18T15:44:14.233Z,41.31
2022-10-18T15:47:25.786Z,40.64
2022-10-18T15:50:44.073Z,41.38
2022-10-18T15:53:59.787Z,41.98
2022-10-18T15:57:16.756Z,42.37
2022-10-18T16:00:27.834Z,42.98
2022-10-18T16:03:36.588Z,44.23
2022-10-18T16:06:44.799Z,44.43
2022-10-18T16:09:53.395Z,44.61
2022-10-18T16:13:01.796Z,44.94
2022-10-18T16:16:27.818Z,44.75
2022-10-18T16:19:42.799Z,43.91
2022-10-18T16:22:57.806Z,43.87
2022-10-18T16:26:15.023Z,44.35
2022-10-18T16:29:48.804Z,44.57
2022-10-18T16:32:54.667Z,45.87
2022-10-18T16:36:09.859Z,47.76
2022-10-18T16:39:18.395Z,48.29
2022-10-18T16:42:32.998Z,47.94
2022-10-18T16:45:35.017Z,49.55
2022-10-18T16:48:50.816Z,50.01
2022-10-18T16:51:53.965Z,49.70
2022-10-18T16:55:09.828Z,49.51
2022-10-18T17:01:32.838Z,50.42
2022-10-18T17:04:40.812Z,51.01
2022-10-18T17:07:56.853Z,51.50
2022-10-18T17:10:59.340Z,51.75
2022-10-18T17:14:13.885Z,52.37
2022-10-18T17:17:23.145Z,52.50
2022-10-18T17:20:45.904Z,52.81
2022-10-18T17:23:48.071Z,53.27
2022-10-18T17:27:02.854Z,53.12
2022-10-18T17:30:05.711Z,52.94
2022-10-18T17:33:21.839Z,52.74
2022-10-18T17:36:30.142Z,53.45
2022-10-18T17:39:38.708Z,53.51
2022-10-18T17:42:46.847Z,53.97
2022-10-18T17:45:56.295Z,54.32
2022-10-18T17:49:04.849Z,54.76
2022-10-18T17:52:20.220Z,54.78
2022-10-18T17:55:22.087Z,54.73
2022-10-18T17:58:37.888Z,55.15
2022-10-18T18:04:55.928Z,54.48
2022-10-18T18:08:07.140Z,55.17
2022-10-18T18:11:17.246Z,55.07
2022-10-18T18:14:31.863Z,55.26
2022-10-18T18:17:34.566Z,55.86
2022-10-18T18:21:01.950Z,55.56
2022-10-18T18:24:03.905Z,56.46
2022-10-18T18:27:18.893Z,56.41
2022-10-18T18:30:28.284Z,57.00
2022-10-18T18:33:39.923Z,56.62
2022-10-18T18:36:54.909Z,56.24
2022-10-18T18:40:03.120Z,56.71
2022-10-18T18:43:25.070Z,57.20
2022-10-18T18:46:35.884Z,57.31
2022-10-18T18:50:05.938Z,57.62
2022-10-18T18:53:07.985Z,57.75
2022-10-18T18:56:25.917Z,57.93
2022-10-18T18:59:41.253Z,58.14
2022-10-18T19:02:42.965Z,58.57
2022-10-18T19:06:01.111Z,58.89
2022-10-18T19:09:06.840Z,58.61
2022-10-18T19:12:21.908Z,58.06
2022-10-18T19:15:23.984Z,58.07
2022-10-18T19:18:40.352Z,58.37
2022-10-18T19:22:05.250Z,58.48
2022-10-18T19:25:26.295Z,58.77
2022-10-18T19:28:35.989Z,59.43
2022-10-18T19:31:45.316Z,59.87
2022-10-18T19:34:53.960Z,59.99
2022-10-18T19:38:03.427Z,60.10
2022-10-18T19:41:15.024Z,60.54
2022-10-18T19:44:30.924Z,60.65
2022-10-18T19:47:32.617Z,60.91
2022-10-18T19:50:46.920Z,61.08
2022-10-18T19:53:48.733Z,61.26
2022-10-18T19:57:18.545Z,61.13
2022-10-18T20:00:28.923Z,61.21
2022-10-18T20:03:37.851Z,61.79
2022-10-18T20:06:52.907Z,61.47
2022-10-18T20:10:01.965Z,61.24
2022-10-18T20:13:17.903Z,62.04
2022-10-18T20:16:27.684Z,61.48
2022-10-18T20:19:43.010Z,61.92
2022-10-18T20:22:51.257Z,62.12
2022-10-18T20:26:09.940Z,62.42
2022-10-18T20:29:14.829Z,62.57
2022-10-18T20:32:29.924Z,62.80
2022-10-18T20:35:38.528Z,62.96
2022-10-18T20:38:48.975Z,62.85
2022-10-18T20:42:03.944Z,62.69
2022-10-18T20:45:13.967Z,62.58
2022-10-18T20:48:22.520Z,62.87
2022-10-18T20:51:30.992Z,63.20
2022-10-18T20:54:39.623Z,63.41
2022-10-18T20:57:47.959Z,63.44
2022-10-18T21:01:03.888Z,63.75
2022-10-18T21:04:18.939Z,64.49
2022-10-18T21:07:26.966Z,64.66
2022-10-18T21:10:36.508Z,64.44
2022-10-18T21:13:44.972Z,64.25
2022-10-18T21:16:59.993Z,64.62
2022-10-18T21:20:01.724Z,64.16
2022-10-18T21:23:23.048Z,64.31
2022-10-18T21:26:27.156Z,64.53
2022-10-18T21:29:41.987Z,64.52
2022-10-18T21:32:50.548Z,64.58
2022-10-18T21:35:59.010Z,63.97
2022-10-18T21:39:10.785Z,64.57
2022-10-18T21:42:24.520Z,64.73
2022-10-18T21:45:38.973Z,65.00
2022-10-18T21:48:46.503Z,65.00
2022-10-18T21:52:04.107Z,64.98
2022-10-18T21:55:12.849Z,64.97
2022-10-18T21:58:28.098Z,65.10
2022-10-18T22:01:32.740Z,64.95
2022-10-18T22:04:48.162Z,65.79
2022-10-18T22:07:56.052Z,66.05
2022-10-18T22:11:12.055Z,65.19
2022-10-18T22:14:19.992Z,63.57
2022-10-18T22:17:28.519Z,63.18
2022-10-18T22:20:46.041Z,62.84
2022-10-18T22:23:56.507Z,62.75
2022-10-18T22:27:05.026Z,62.32
2022-10-18T22:30:14.928Z,62.67
2022-10-18T22:33:23.326Z,63.74
2022-10-18T22:36:38.999Z,62.94
2022-10-18T22:39:53.981Z,62.57
2022-10-18T22:43:02.091Z,62.41
2022-10-18T22:46:19.047Z,62.62
2022-10-18T22:49:27.047Z,63.28
2022-10-18T22:52:42.059Z,63.56
2022-10-18T22:55:58.008Z,63.35
2022-10-18T22:59:14.046Z,63.29
2022-10-18T23:02:22.051Z,63.49
2022-10-18T23:05:30.661Z,63.75
2022-10-18T23:08:39.027Z,63.78
2022-10-18T23:11:47.653Z,64.12
2022-10-18T23:14:56.041Z,63.78
2022-10-18T23:18:12.064Z,64.76
2022-10-18T23:21:28.101Z,64.95
2022-10-18T23:24:43.029Z,65.03
2022-10-18T23:27:44.943Z,65.04
2022-10-18T23:31:03.142Z,64.79
2022-10-18T23:34:05.766Z,64.84
2022-10-18T23:37:20.052Z,65.08
2022-10-18T23:40:30.033Z,65.36
2022-10-18T23:43:46.165Z,65.33
2022-10-18T23:47:01.053Z,64.75
2022-10-18T23:50:10.273Z,64.18
2022-10-18T23:53:19.072Z,63.98
2022-10-18T23:56:34.067Z,64.33
2022-10-18T23:59:35.992Z,64.14
